createdAt,value
2018-01-26T00:00:10.877Z,7.10
2018-01-26T00:02:38.537Z,7.10
2018-01-26T00:05:06.177Z,7.10
2018-01-26T00:07:34.626Z,7.10
2018-01-26T00:10:02.231Z,7.10
2018-01-26T00:12:29.848Z,7.10
2018-01-26T00:14:57.416Z,7.10
2018-01-26T00:17:25.021Z,7.10
2018-01-26T00:19:55.344Z,7.00
2018-01-26T00:22:22.919Z,7.00
2018-01-26T00:24:50.523Z,7.00
2018-01-26T00:27:18.917Z,6.90
2018-01-26T00:29:57.515Z,6.90
2018-01-26T00:32:25.933Z,6.90
2018-01-26T00:34:53.507Z,6.90
2018-01-26T00:37:21.069Z,6.90
2018-01-26T00:39:48.679Z,6.90
2018-01-26T00:42:18.953Z,6.90
2018-01-26T00:44:46.557Z,6.90
2018-01-26T00:47:14.948Z,6.80
2018-01-26T00:49:49.630Z,6.80
2018-01-26T00:52:18.320Z,6.90
2018-01-26T00:54:45.938Z,6.80
2018-01-26T00:57:13.519Z,6.80
2018-01-26T00:59:57.776Z,6.70
2018-01-26T01:02:25.905Z,6.70
2018-01-26T01:04:54.082Z,6.70
2018-01-26T01:07:22.790Z,6.70
2018-01-26T01:09:59.138Z,6.60
2018-01-26T01:12:26.727Z,6.60
2018-01-26T01:14:55.167Z,6.50
2018-01-26T01:17:22.759Z,6.50
2018-01-26T01:19:55.351Z,6.50
2018-01-26T01:22:23.549Z,6.40
2018-01-26T01:24:51.915Z,6.40
2018-01-26T01:27:19.525Z,6.30
2018-01-26T01:29:52.417Z,6.30
2018-01-26T01:32:20.014Z,6.20
2018-01-26T01:34:47.640Z,6.10
2018-01-26T01:37:15.247Z,6.10
2018-01-26T01:39:43.787Z,6.00
2018-01-26T01:42:11.394Z,6.00
2018-01-26T01:44:40.494Z,5.90
2018-01-26T01:47:08.140Z,5.90
2018-01-26T01:49:37.352Z,5.80
2018-01-26T01:52:05.725Z,5.70
2018-01-26T01:54:34.092Z,5.70
2018-01-26T01:57:01.720Z,5.70
2018-01-26T01:59:32.360Z,5.60
2018-01-26T02:01:59.959Z,5.60
2018-01-26T02:04:27.645Z,5.60
2018-01-26T02:06:56.697Z,5.50
2018-01-26T02:09:24.285Z,5.50
2018-01-26T02:11:52.643Z,5.40
2018-01-26T02:14:20.253Z,5.40
2018-01-26T02:16:48.609Z,5.40
2018-01-26T02:19:17.220Z,5.30
2018-01-26T02:21:44.876Z,5.30
2018-01-26T02:24:12.475Z,5.40
2018-01-26T02:26:40.100Z,5.30
2018-01-26T02:29:07.804Z,5.30
2018-01-26T02:31:35.383Z,5.20
2018-01-26T02:34:03.029Z,5.20
2018-01-26T02:36:30.678Z,5.20
2018-01-26T02:38:58.413Z,5.20
2018-01-26T02:41:26.065Z,5.20
2018-01-26T02:43:54.467Z,5.20
2018-01-26T02:46:22.091Z,5.20
2018-01-26T02:48:49.677Z,5.20
2018-01-26T02:51:18.073Z,5.20
2018-01-26T02:53:45.714Z,5.20
2018-01-26T02:56:14.101Z,5.10
2018-01-26T02:58:45.695Z,5.10
2018-01-26T03:01:13.752Z,5.10
2018-01-26T03:03:41.366Z,5.10
2018-01-26T03:06:08.955Z,5.10
2018-01-26T03:08:47.154Z,5.00
2018-01-26T03:11:14.826Z,5.00
2018-01-26T03:13:42.390Z,5.00
2018-01-26T03:16:09.988Z,5.00
2018-01-26T03:18:45.322Z,5.00
2018-01-26T03:21:12.947Z,5.00
2018-01-26T03:23:40.561Z,5.00
2018-01-26T03:26:08.212Z,5.00
2018-01-26T03:28:35.795Z,5.00
2018-01-26T03:31:03.384Z,4.90
2018-01-26T03:33:31.005Z,4.90
2018-01-26T03:35:58.635Z,5.00
2018-01-26T03:38:39.771Z,4.90
2018-01-26T03:41:08.175Z,5.00
2018-01-26T03:43:35.777Z,5.00
2018-01-26T03:46:03.343Z,5.00
2018-01-26T03:48:31.944Z,5.00
2018-01-26T03:50:59.542Z,5.00
2018-01-26T03:53:27.134Z,5.00
2018-01-26T03:55:54.832Z,4.90
2018-01-26T03:58:24.382Z,4.90
2018-01-26T04:00:51.991Z,5.00
2018-01-26T04:03:20.351Z,5.00
2018-01-26T04:05:47.964Z,5.00
2018-01-26T04:08:15.535Z,4.90
2018-01-26T04:10:43.191Z,4.90
2018-01-26T04:13:11.564Z,4.90
2018-01-26T04:15:39.144Z,4.90
2018-01-26T04:18:20.401Z,4.90
2018-01-26T04:20:48.030Z,4.90
2018-01-26T04:23:16.379Z,4.90
2018-01-26T04:25:44.028Z,4.90
2018-01-26T04:28:15.882Z,4.90
2018-01-26T04:30:43.502Z,4.90
2018-01-26T04:33:11.916Z,5.00
2018-01-26T04:35:39.528Z,4.90
2018-01-26T04:38:07.208Z,5.00
2018-01-26T04:40:34.862Z,5.10
2018-01-26T04:43:02.500Z,5.10
2018-01-26T04:45:30.157Z,5.10
2018-01-26T04:48:01.598Z,5.20
2018-01-26T04:50:29.809Z,5.20
2018-01-26T04:52:57.432Z,5.30
2018-01-26T04:55:25.866Z,5.30
2018-01-26T04:57:55.325Z,5.30
2018-01-26T05:00:23.383Z,5.30
2018-01-26T05:02:50.997Z,5.30
2018-01-26T05:05:18.618Z,5.30
2018-01-26T05:07:47.322Z,5.30
2018-01-26T05:10:14.937Z,5.30
2018-01-26T05:12:42.594Z,5.30
2018-01-26T05:15:10.952Z,5.20
2018-01-26T05:17:38.566Z,5.20
2018-01-26T05:20:06.968Z,5.30
2018-01-26T05:22:34.636Z,5.30
2018-01-26T05:25:02.275Z,5.30
2018-01-26T05:27:29.899Z,5.30
2018-01-26T05:29:57.466Z,5.30
2018-01-26T05:32:25.178Z,5.30
2018-01-26T05:34:52.838Z,5.20
2018-01-26T05:37:20.437Z,5.20
2018-01-26T05:39:49.019Z,5.20
2018-01-26T05:42:16.620Z,5.20
2018-01-26T05:44:45.041Z,5.10
2018-01-26T05:47:13.343Z,5.10
2018-01-26T05:49:41.978Z,5.00
2018-01-26T05:52:10.412Z,5.00
2018-01-26T05:54:38.074Z,5.00
2018-01-26T05:57:06.440Z,5.00
2018-01-26T05:59:35.034Z,4.90
2018-01-26T06:02:03.224Z,5.00
2018-01-26T06:04:30.992Z,4.90
2018-01-26T06:06:59.442Z,4.90
2018-01-26T06:09:28.962Z,4.80
2018-01-26T06:11:56.622Z,4.90
2018-01-26T06:14:24.820Z,4.90
2018-01-26T06:16:52.466Z,4.90
2018-01-26T06:19:22.021Z,4.80
2018-01-26T06:21:50.351Z,4.80
2018-01-26T06:24:17.985Z,4.80
2018-01-26T06:26:45.632Z,4.70
2018-01-26T06:29:13.368Z,4.70
2018-01-26T06:31:41.003Z,4.60
2018-01-26T06:34:08.744Z,4.60
2018-01-26T06:36:36.351Z,4.50
2018-01-26T06:39:04.938Z,4.50
2018-01-26T06:41:32.686Z,4.50
2018-01-26T06:44:00.271Z,4.50
2018-01-26T06:46:27.880Z,4.40
2018-01-26T06:49:03.730Z,4.50
2018-01-26T06:51:31.354Z,4.40
2018-01-26T06:53:58.976Z,4.50
2018-01-26T06:56:26.634Z,4.40
2018-01-26T06:58:57.318Z,4.40
2018-01-26T07:01:24.904Z,4.40
2018-01-26T07:03:55.881Z,4.30
2018-01-26T07:06:23.476Z,4.30
2018-01-26T07:08:51.112Z,4.30
2018-01-26T07:11:18.695Z,4.30
2018-01-26T07:13:47.899Z,4.20
2018-01-26T07:16:15.885Z,4.20
2018-01-26T07:18:45.652Z,4.20
2018-01-26T07:21:13.398Z,4.20
2018-01-26T07:23:41.166Z,4.20
2018-01-26T07:26:09.566Z,4.20
2018-01-26T07:28:47.293Z,4.10
2018-01-26T07:31:15.064Z,4.10
2018-01-26T07:33:45.042Z,4.10
2018-01-26T07:36:12.938Z,4.10
2018-01-26T07:38:45.487Z,4.10
2018-01-26T07:41:13.378Z,4.20
2018-01-26T07:43:41.052Z,4.20
2018-01-26T07:46:12.958Z,4.10
2018-01-26T07:48:43.992Z,4.10
2018-01-26T07:51:12.938Z,4.10
2018-01-26T07:53:40.885Z,4.20
2018-01-26T07:56:08.673Z,4.20
2018-01-26T07:58:38.149Z,4.30
2018-01-26T08:01:05.927Z,4.30
2018-01-26T08:03:33.567Z,4.30
2018-01-26T08:06:01.976Z,4.30
2018-01-26T08:08:31.545Z,4.30
2018-01-26T08:11:00.462Z,4.40
2018-01-26T08:13:28.866Z,4.40
2018-01-26T08:15:56.550Z,4.40
2018-01-26T08:18:31.070Z,4.40
2018-01-26T08:20:58.848Z,4.50
2018-01-26T08:23:29.251Z,4.40
2018-01-26T08:25:58.154Z,4.50
2018-01-26T08:28:26.458Z,4.50
2018-01-26T08:30:54.151Z,4.60
2018-01-26T08:33:22.720Z,4.70
2018-01-26T08:35:50.391Z,4.60
2018-01-26T08:38:18.757Z,4.70
2018-01-26T08:40:46.397Z,4.70
2018-01-26T08:43:15.355Z,4.80
2018-01-26T08:45:42.951Z,4.80
2018-01-26T08:48:11.483Z,4.90
2018-01-26T08:50:39.967Z,4.90
2018-01-26T08:53:08.376Z,5.00
2018-01-26T08:55:36.104Z,5.00
2018-01-26T08:58:03.720Z,5.00
2018-01-26T09:00:31.345Z,5.10
2018-01-26T09:02:58.952Z,5.20
2018-01-26T09:05:27.393Z,5.30
2018-01-26T09:07:56.840Z,5.30
2018-01-26T09:10:25.342Z,5.20
2018-01-26T09:12:53.500Z,5.30
2018-01-26T09:15:21.089Z,5.40
2018-01-26T09:17:48.665Z,5.50
2018-01-26T09:20:16.909Z,5.60
2018-01-26T09:22:44.539Z,5.60
2018-01-26T09:25:12.124Z,5.70
2018-01-26T09:27:40.305Z,5.70
2018-01-26T09:30:07.951Z,5.70
2018-01-26T09:32:35.532Z,5.80
2018-01-26T09:35:03.492Z,5.90
2018-01-26T09:37:38.172Z,5.90
2018-01-26T09:40:05.750Z,6.00
2018-01-26T09:42:34.079Z,6.00
2018-01-26T09:45:01.710Z,6.00
2018-01-26T09:47:29.400Z,6.10
2018-01-26T09:49:57.971Z,6.10
2018-01-26T09:52:25.574Z,6.10
2018-01-26T09:54:53.145Z,6.10
2018-01-26T09:57:20.752Z,6.10
2018-01-26T09:59:57.999Z,6.10
2018-01-26T10:02:26.076Z,6.10
2018-01-26T10:04:53.799Z,6.10
2018-01-26T10:07:22.937Z,6.10
2018-01-26T10:09:50.530Z,6.20
2018-01-26T10:12:18.124Z,6.20
2018-01-26T10:14:45.787Z,6.20
2018-01-26T10:17:14.012Z,6.20
2018-01-26T10:19:41.556Z,6.20
2018-01-26T10:22:10.040Z,6.30
2018-01-26T10:24:37.624Z,6.40
2018-01-26T10:27:05.952Z,6.60
2018-01-26T10:29:36.892Z,6.60
2018-01-26T10:32:05.232Z,6.70
2018-01-26T10:34:33.806Z,6.80
2018-01-26T10:37:02.174Z,6.80
2018-01-26T10:39:47.454Z,6.80
2018-01-26T10:42:15.064Z,6.90
2018-01-26T10:44:42.657Z,6.80
2018-01-26T10:47:10.277Z,6.80
2018-01-26T10:49:38.918Z,6.90
2018-01-26T10:52:06.637Z,6.80
2018-01-26T10:54:34.221Z,6.80
2018-01-26T10:57:01.863Z,6.90
2018-01-26T11:02:23.194Z,6.90
2018-01-26T11:04:50.817Z,7.00
2018-01-26T11:07:19.016Z,7.10
2018-01-26T11:09:51.176Z,7.20
2018-01-26T11:12:18.754Z,7.20
2018-01-26T11:14:47.110Z,7.30
2018-01-26T11:17:14.715Z,7.30
2018-01-26T11:19:44.156Z,7.50
2018-01-26T11:22:12.833Z,7.50
2018-01-26T11:24:40.504Z,7.60
2018-01-26T11:27:08.697Z,7.80
2018-01-26T11:29:36.259Z,7.90
2018-01-26T11:32:03.903Z,8.00
2018-01-26T11:34:31.481Z,8.00
2018-01-26T11:36:59.093Z,8.00
2018-01-26T11:39:28.341Z,8.10
2018-01-26T11:41:56.426Z,8.20
2018-01-26T11:44:24.030Z,8.30
2018-01-26T11:46:51.634Z,8.40
2018-01-26T11:49:20.243Z,8.50
2018-01-26T11:51:48.672Z,8.60
2018-01-26T11:54:16.964Z,8.60
2018-01-26T11:56:44.557Z,8.70
2018-01-26T11:59:19.646Z,8.80
2018-01-26T12:01:47.535Z,9.00
2018-01-26T12:04:15.145Z,9.00
2018-01-26T12:06:42.802Z,9.10
2018-01-26T12:09:11.364Z,9.20
2018-01-26T12:11:38.958Z,9.30
2018-01-26T12:14:07.397Z,9.30
2018-01-26T12:16:35.079Z,9.30
2018-01-26T12:19:06.125Z,9.30
2018-01-26T12:21:34.599Z,9.40
2018-01-26T12:24:02.254Z,9.40
2018-01-26T12:26:30.823Z,9.40
2018-01-26T12:29:00.656Z,9.40
2018-01-26T12:31:28.390Z,9.50
2018-01-26T12:33:57.516Z,9.60
2018-01-26T12:36:26.198Z,9.60
2018-01-26T12:38:54.574Z,9.70
2018-01-26T12:41:22.233Z,9.70
2018-01-26T12:43:49.830Z,9.70
2018-01-26T12:46:17.369Z,9.70
2018-01-26T12:48:44.948Z,9.70
2018-01-26T12:51:13.286Z,9.80
2018-01-26T12:53:41.461Z,9.80
2018-01-26T12:56:09.135Z,9.80
2018-01-26T12:58:42.283Z,9.80
2018-01-26T13:01:10.697Z,10.00
2018-01-26T13:03:38.453Z,10.00
2018-01-26T13:06:06.908Z,10.00
2018-01-26T13:08:34.554Z,10.00
2018-01-26T13:11:02.140Z,9.90
2018-01-26T13:13:30.267Z,9.70
2018-01-26T13:15:58.573Z,9.60
2018-01-26T13:18:34.791Z,9.60
2018-01-26T13:21:02.410Z,9.60
2018-01-26T13:23:30.030Z,9.60
2018-01-26T13:25:57.754Z,9.60
2018-01-26T13:28:29.126Z,9.70
2018-01-26T13:30:56.759Z,9.70
2018-01-26T13:33:25.138Z,9.70
2018-01-26T13:35:52.747Z,9.60
2018-01-26T13:38:23.714Z,9.50
2018-01-26T13:40:51.916Z,9.50
2018-01-26T13:43:19.590Z,9.50
2018-01-26T13:45:47.250Z,9.50
2018-01-26T13:48:15.117Z,9.50
2018-01-26T13:50:48.429Z,9.90
2018-01-26T13:53:26.095Z,10.00
2018-01-26T13:55:55.524Z,10.10
2018-01-26T13:58:26.614Z,10.10
2018-01-26T14:00:54.216Z,10.10
2018-01-26T14:03:21.884Z,10.10
2018-01-26T14:05:49.460Z,10.00
2018-01-26T14:08:17.924Z,9.70
2018-01-26T14:10:46.456Z,9.60
2018-01-26T14:13:17.190Z,9.60
2018-01-26T14:15:44.866Z,9.50
2018-01-26T14:18:27.153Z,9.50
2018-01-26T14:20:55.385Z,9.50
2018-01-26T14:23:23.025Z,9.50
2018-01-26T14:25:50.679Z,9.50
2018-01-26T14:28:34.929Z,9.60
2018-01-26T14:31:02.617Z,9.70
2018-01-26T14:33:30.795Z,9.60
2018-01-26T14:35:58.441Z,9.60
2018-01-26T14:38:28.089Z,9.60
2018-01-26T14:40:56.208Z,9.50
2018-01-26T14:43:23.896Z,9.40
2018-01-26T14:45:51.566Z,9.40
2018-01-26T14:48:19.223Z,9.40
2018-01-26T14:50:46.817Z,9.40
2018-01-26T14:53:14.452Z,9.30
2018-01-26T14:55:42.084Z,9.30
2018-01-26T14:58:18.158Z,9.30
2018-01-26T15:00:45.786Z,9.20
2018-01-26T15:03:14.197Z,9.10
2018-01-26T15:05:41.812Z,9.20
2018-01-26T15:08:10.740Z,9.10
2018-01-26T15:10:38.450Z,9.10
2018-01-26T15:13:06.103Z,9.10
2018-01-26T15:15:33.757Z,9.10
2018-01-26T15:18:01.355Z,9.10
2018-01-26T15:20:31.395Z,9.00
2018-01-26T15:25:47.289Z,8.90
2018-01-26T15:28:16.814Z,8.80
2018-01-26T15:30:44.431Z,8.80
2018-01-26T15:33:12.124Z,8.80
2018-01-26T15:35:41.102Z,8.80
2018-01-26T15:38:12.940Z,8.70
2018-01-26T15:40:40.671Z,8.70
2018-01-26T15:43:09.322Z,8.40
2018-01-26T15:45:36.920Z,8.40
2018-01-26T15:48:05.567Z,8.40
2018-01-26T15:50:33.289Z,8.40
2018-01-26T15:53:00.993Z,8.40
2018-01-26T15:55:31.287Z,8.30
2018-01-26T15:57:59.580Z,8.30
2018-01-26T16:00:33.195Z,8.30
2018-01-26T16:03:00.903Z,8.20
2018-01-26T16:05:28.621Z,8.30
2018-01-26T16:07:57.459Z,8.20
2018-01-26T16:10:25.300Z,8.20
2018-01-26T16:12:52.961Z,8.20
2018-01-26T16:15:21.028Z,8.20
2018-01-26T16:17:51.208Z,8.10
2018-01-26T16:20:19.568Z,8.00
2018-01-26T16:22:47.302Z,8.00
2018-01-26T16:25:16.898Z,8.00
2018-01-26T16:27:44.744Z,8.00
2018-01-26T16:30:12.415Z,8.00
2018-01-26T16:32:40.438Z,8.00
2018-01-26T16:35:08.092Z,8.00
2018-01-26T16:37:40.108Z,8.00
2018-01-26T16:40:10.439Z,8.00
2018-01-26T16:42:38.099Z,8.00
2018-01-26T16:45:06.605Z,8.00
2018-01-26T16:47:34.301Z,8.00
2018-01-26T16:50:01.937Z,8.00
2018-01-26T16:52:29.733Z,8.00
2018-01-26T16:54:58.218Z,8.00
2018-01-26T16:57:26.118Z,7.90
2018-01-26T16:59:57.612Z,7.90
2018-01-26T17:02:26.524Z,7.80
2018-01-26T17:04:55.612Z,7.80
2018-01-26T17:07:25.908Z,7.80
2018-01-26T17:10:06.426Z,7.70
2018-01-26T17:12:35.224Z,7.70
2018-01-26T17:15:04.426Z,7.60
2018-01-26T18:34:10.554Z,7.00
2018-01-26T18:36:48.086Z,7.00
2018-01-26T18:44:37.283Z,7.00
2018-01-26T18:47:08.388Z,7.00
